createdAt,value
2022-11-14T00:00:33.933Z,5.06
2022-11-14T00:03:21.993Z,5.02
2022-11-14T00:06:09.846Z,5.12
2022-11-14T00:08:57.744Z,4.98
2022-11-14T00:11:45.498Z,5.01
2022-11-14T00:14:33.483Z,5.18
2022-11-14T00:17:21.611Z,5.22
2022-11-14T00:20:12.394Z,5.31
2022-11-14T00:23:00.404Z,5.21
2022-11-14T00:25:48.931Z,4.99
2022-11-14T00:28:36.866Z,5.28
2022-11-14T00:31:24.721Z,4.99
2022-11-14T00:34:12.602Z,5.11
2022-11-14T00:37:00.592Z,5.26
2022-11-14T00:39:48.457Z,5.05
2022-11-14T00:42:36.258Z,4.86
2022-11-14T00:45:24.701Z,4.57
2022-11-14T00:48:12.533Z,4.22
2022-11-14T00:51:00.325Z,4.14
2022-11-14T00:53:48.133Z,4.05
2022-11-14T00:56:35.889Z,3.80
2022-11-14T00:59:23.772Z,3.74
2022-11-14T01:02:11.712Z,3.81
2022-11-14T01:05:00.217Z,3.80
2022-11-14T01:07:48.266Z,3.88
2022-11-14T01:10:43.410Z,3.69
2022-11-14T01:13:32.696Z,3.76
2022-11-14T01:16:21.571Z,3.60
2022-11-14T01:19:09.606Z,3.62
2022-11-14T01:21:59.624Z,4.02
2022-11-14T01:24:50.955Z,3.99
2022-11-14T01:27:38.830Z,3.82
2022-11-14T01:30:26.633Z,3.78
2022-11-14T01:33:14.449Z,3.88
2022-11-14T01:36:02.319Z,4.10
2022-11-14T01:38:54.354Z,4.09
2022-11-14T01:41:42.285Z,3.83
2022-11-14T01:44:53.222Z,3.78
2022-11-14T01:47:42.233Z,4.02
2022-11-14T01:50:30.184Z,4.05
2022-11-14T01:53:18.144Z,3.74
2022-11-14T01:56:10.184Z,3.77
2022-11-14T01:59:15.907Z,3.77
2022-11-14T02:02:11.007Z,3.61
2022-11-14T02:05:16.549Z,3.60
2022-11-14T02:08:04.673Z,3.58
2022-11-14T02:10:52.695Z,3.32
2022-11-14T02:13:40.668Z,3.36
2022-11-14T02:16:28.760Z,3.37
2022-11-14T02:19:17.781Z,3.53
2022-11-14T02:22:05.594Z,3.59
2022-11-14T02:24:53.536Z,3.54
2022-11-14T02:27:42.067Z,3.57
2022-11-14T02:30:29.955Z,3.52
2022-11-14T02:33:17.811Z,3.68
2022-11-14T02:36:06.135Z,3.58
2022-11-14T02:38:53.952Z,3.81
2022-11-14T02:41:41.875Z,3.32
2022-11-14T02:44:29.784Z,3.36
2022-11-14T02:47:17.687Z,3.36
2022-11-14T02:50:06.113Z,3.15
2022-11-14T02:52:54.140Z,3.25
2022-11-14T02:55:42.004Z,3.37
2022-11-14T02:58:30.167Z,2.99
2022-11-14T03:01:21.320Z,3.14
2022-11-14T03:04:09.596Z,3.07
2022-11-14T03:07:00.469Z,3.10
2022-11-14T03:09:48.325Z,3.17
2022-11-14T03:12:36.287Z,3.31
2022-11-14T03:15:24.948Z,3.25
2022-11-14T03:18:13.192Z,3.26
2022-11-14T03:21:18.171Z,3.56
2022-11-14T03:24:06.572Z,3.51
2022-11-14T03:26:54.500Z,3.40
2022-11-14T03:29:42.367Z,3.21
2022-11-14T03:32:30.371Z,3.17
2022-11-14T03:35:18.416Z,3.27
2022-11-14T03:38:06.316Z,3.31
2022-11-14T03:40:54.365Z,3.26
2022-11-14T03:43:42.397Z,3.11
2022-11-14T03:46:30.253Z,3.02
2022-11-14T03:49:18.311Z,3.01
2022-11-14T03:52:06.105Z,2.97
2022-11-14T03:54:53.929Z,2.98
2022-11-14T03:57:41.744Z,2.84
2022-11-14T04:00:30.224Z,3.04
2022-11-14T04:03:18.118Z,2.91
2022-11-14T04:06:06.165Z,2.64
2022-11-14T04:08:54.136Z,2.84
2022-11-14T04:11:41.966Z,2.97
2022-11-14T04:14:29.776Z,2.74
2022-11-14T04:17:17.857Z,2.51
2022-11-14T04:20:06.339Z,2.48
2022-11-14T04:22:54.191Z,2.58
2022-11-14T04:25:44.900Z,2.42
2022-11-14T04:28:32.873Z,2.46
2022-11-14T04:31:20.835Z,2.31
2022-11-14T04:34:08.826Z,2.45
2022-11-14T04:36:56.733Z,2.73
2022-11-14T04:39:44.485Z,2.89
2022-11-14T04:42:32.281Z,2.80
2022-11-14T04:45:20.339Z,2.73
2022-11-14T04:48:08.433Z,2.84
2022-11-14T04:50:56.307Z,3.03
2022-11-14T04:53:44.189Z,3.25
2022-11-14T04:56:32.036Z,3.24
2022-11-14T04:59:21.204Z,2.98
2022-11-14T05:02:09.358Z,3.15
2022-11-14T05:04:57.201Z,3.21
2022-11-14T05:07:45.089Z,3.23
2022-11-14T05:10:33.239Z,3.46
2022-11-14T05:13:21.103Z,3.27
2022-11-14T05:16:09.150Z,3.39
2022-11-14T05:18:56.998Z,3.66
2022-11-14T05:21:44.801Z,3.71
2022-11-14T05:24:32.642Z,3.72
2022-11-14T05:27:20.477Z,3.93
2022-11-14T05:30:12.084Z,4.14
2022-11-14T05:33:00.865Z,4.39
2022-11-14T05:35:48.748Z,4.45
2022-11-14T05:38:36.875Z,4.50
2022-11-14T05:41:24.747Z,4.70
2022-11-14T05:44:12.654Z,4.93
2022-11-14T05:47:03.490Z,5.01
2022-11-14T05:49:51.379Z,4.97
2022-11-14T05:52:39.359Z,5.32
2022-11-14T05:55:27.623Z,5.18
2022-11-14T05:58:15.695Z,5.09
2022-11-14T06:01:17.124Z,5.14
2022-11-14T06:04:08.928Z,5.04
2022-11-14T06:06:56.942Z,5.20
2022-11-14T06:09:44.957Z,4.97
2022-11-14T06:12:32.985Z,5.09
2022-11-14T06:15:20.867Z,5.15
2022-11-14T06:18:08.855Z,5.19
2022-11-14T06:21:14.592Z,4.95
2022-11-14T06:24:04.637Z,5.00
2022-11-14T06:26:52.465Z,4.85
2022-11-14T06:29:40.399Z,4.93
2022-11-14T06:32:28.298Z,4.93
2022-11-14T06:35:17.520Z,4.74
2022-11-14T06:38:08.547Z,4.79
2022-11-14T06:41:25.798Z,4.72
2022-11-14T06:44:15.062Z,4.69
2022-11-14T06:47:02.924Z,4.70
2022-11-14T06:49:50.695Z,4.66
2022-11-14T06:52:38.667Z,4.50
2022-11-14T06:55:26.471Z,4.64
2022-11-14T06:58:14.479Z,4.53
2022-11-14T07:01:10.728Z,4.49
2022-11-14T07:07:14.721Z,4.25
2022-11-14T07:10:03.135Z,4.03
2022-11-14T07:12:53.295Z,4.30
2022-11-14T07:15:50.011Z,4.46
2022-11-14T07:18:38.413Z,4.56
2022-11-14T07:21:31.489Z,4.54
2022-11-14T07:24:19.521Z,4.64
2022-11-14T07:27:11.166Z,4.85
2022-11-14T07:29:59.188Z,4.76
2022-11-14T07:32:48.390Z,4.56
2022-11-14T07:35:36.369Z,4.47
2022-11-14T07:38:24.520Z,4.72
2022-11-14T07:41:17.117Z,4.93
2022-11-14T07:44:09.653Z,5.00
2022-11-14T07:46:57.636Z,4.93
2022-11-14T07:49:45.477Z,4.99
2022-11-14T07:52:33.684Z,5.22
2022-11-14T07:55:22.465Z,5.34
2022-11-14T07:58:10.374Z,5.19
2022-11-14T08:01:02.687Z,4.98
2022-11-14T08:03:50.704Z,4.97
2022-11-14T08:06:38.713Z,4.92
2022-11-14T08:09:26.633Z,5.14
2022-11-14T08:12:14.539Z,5.46
2022-11-14T08:15:02.494Z,5.37
2022-11-14T08:17:50.471Z,5.42
2022-11-14T08:20:38.549Z,5.34
2022-11-14T08:23:26.552Z,5.46
2022-11-14T08:26:14.444Z,5.46
2022-11-14T08:29:02.693Z,5.38
2022-11-14T08:31:52.622Z,5.57
2022-11-14T08:34:43.752Z,5.65
2022-11-14T08:37:32.567Z,5.33
2022-11-14T08:40:26.561Z,5.39
2022-11-14T08:43:14.850Z,5.59
2022-11-14T08:46:05.948Z,6.00
2022-11-14T08:48:54.078Z,5.73
2022-11-14T08:51:45.368Z,5.92
2022-11-14T08:54:33.496Z,6.27
2022-11-14T08:57:21.413Z,6.08
2022-11-14T09:00:10.332Z,6.06
2022-11-14T09:02:58.247Z,6.20
2022-11-14T09:05:52.918Z,6.33
2022-11-14T09:08:40.838Z,5.99
2022-11-14T09:11:28.714Z,6.21
2022-11-14T09:14:22.393Z,5.67
2022-11-14T09:17:10.364Z,5.55
2022-11-14T09:19:58.187Z,5.44
2022-11-14T09:22:48.979Z,5.46
2022-11-14T09:25:37.444Z,5.63
2022-11-14T09:28:25.527Z,6.10
2022-11-14T09:31:13.986Z,6.10
2022-11-14T09:34:01.895Z,5.84
2022-11-14T09:36:52.963Z,6.60
2022-11-14T09:39:41.249Z,6.76
2022-11-14T09:43:17.691Z,7.29
2022-11-14T09:46:24.125Z,7.72
2022-11-14T09:49:35.577Z,7.64
2022-11-14T09:52:45.186Z,7.79
2022-11-14T09:55:37.175Z,7.32
2022-11-14T09:58:27.502Z,7.15
2022-11-14T10:02:03.087Z,7.55
2022-11-14T10:05:22.658Z,7.73
2022-11-14T10:08:37.734Z,7.31
2022-11-14T10:11:36.870Z,7.33
2022-11-14T10:15:08.991Z,8.50
2022-11-14T10:18:37.051Z,9.18
2022-11-14T10:21:44.710Z,8.76
2022-11-14T10:24:54.874Z,11.78
2022-11-14T10:28:34.178Z,12.08
2022-11-14T10:31:53.164Z,14.91
2022-11-14T10:35:01.100Z,13.86
2022-11-14T10:37:58.439Z,16.02
2022-11-14T10:40:50.779Z,14.18
2022-11-14T10:43:44.760Z,13.99
2022-11-14T10:46:56.233Z,12.30
2022-11-14T10:49:47.955Z,11.80
2022-11-14T10:52:41.862Z,12.73
2022-11-14T10:55:50.049Z,11.05
2022-11-14T10:58:48.862Z,10.77
2022-11-14T11:01:47.277Z,10.40
2022-11-14T11:04:42.362Z,10.28
2022-11-14T11:08:41.362Z,10.54
2022-11-14T11:11:32.672Z,10.92
2022-11-14T11:14:23.702Z,11.27
2022-11-14T11:17:11.489Z,11.50
2022-11-14T11:20:36.491Z,11.43
2022-11-14T11:23:28.026Z,12.25
2022-11-14T11:26:37.378Z,14.44
2022-11-14T11:29:30.224Z,14.55
2022-11-14T11:32:33.649Z,14.69
2022-11-14T11:35:21.959Z,15.83
2022-11-14T11:38:15.977Z,13.49
2022-11-14T11:44:47.001Z,11.46
2022-11-14T11:47:36.982Z,11.03
2022-11-14T11:50:26.143Z,11.93
2022-11-14T11:53:26.685Z,14.92
2022-11-14T11:56:24.983Z,15.18
2022-11-14T11:59:42.162Z,15.63
2022-11-14T12:02:30.778Z,13.92
2022-11-14T12:05:24.977Z,13.58
2022-11-14T12:08:30.725Z,13.19
2022-11-14T12:11:22.227Z,13.01
2022-11-14T12:14:57.160Z,12.58
2022-11-14T12:18:15.783Z,14.78
2022-11-14T12:21:21.299Z,15.93
2022-11-14T12:24:43.162Z,15.47
2022-11-14T12:28:05.488Z,14.68
2022-11-14T12:30:59.545Z,13.50
2022-11-14T12:33:57.881Z,12.72
2022-11-14T12:36:46.482Z,12.29
2022-11-14T12:39:35.015Z,12.12
2022-11-14T12:42:23.003Z,12.34
2022-11-14T12:45:41.603Z,12.61
2022-11-14T12:48:32.826Z,12.13
2022-11-14T12:51:29.718Z,12.20
2022-11-14T12:54:47.906Z,12.08
2022-11-14T12:58:22.852Z,11.76
2022-11-14T13:01:47.938Z,10.91
2022-11-14T13:05:11.320Z,11.05
2022-11-14T13:08:49.354Z,10.79
2022-11-14T13:12:01.272Z,10.62
2022-11-14T13:15:14.709Z,10.81
2022-11-14T13:18:40.643Z,10.56
2022-11-14T13:21:47.044Z,10.58
2022-11-14T13:24:59.856Z,10.29
2022-11-14T13:31:06.983Z,9.96
2022-11-14T13:34:01.548Z,10.04
2022-11-14T13:37:29.542Z,10.08
2022-11-14T13:41:07.363Z,10.43
2022-11-14T13:44:24.590Z,10.43
2022-11-14T13:48:17.282Z,10.26
2022-11-14T13:51:36.708Z,10.18
2022-11-14T13:54:20.711Z,10.06
2022-11-14T13:57:45.043Z,10.16
2022-11-14T14:01:06.425Z,10.01
2022-11-14T14:04:12.695Z,10.34
2022-11-14T14:07:33.855Z,10.45
2022-11-14T14:10:57.712Z,9.93
2022-11-14T14:14:14.116Z,9.86
2022-11-14T14:17:35.445Z,9.66
2022-11-14T14:20:53.346Z,9.51
2022-11-14T14:23:53.519Z,9.63
2022-11-14T14:26:57.805Z,9.60
2022-11-14T14:30:08.864Z,9.63
2022-11-14T14:33:14.961Z,9.68
2022-11-14T14:36:02.762Z,9.53
2022-11-14T14:39:16.393Z,9.61
2022-11-14T14:42:16.343Z,9.82
2022-11-14T14:45:10.430Z,9.75
2022-11-14T14:48:13.178Z,10.03
2022-11-14T14:51:03.253Z,9.95
2022-11-14T14:53:54.528Z,9.93
2022-11-14T14:57:00.100Z,9.91
2022-11-14T15:00:17.494Z,9.72
2022-11-14T15:03:05.403Z,9.75
2022-11-14T15:06:05.527Z,9.90
2022-11-14T15:08:53.493Z,10.03
2022-11-14T15:11:44.974Z,9.76
2022-11-14T15:14:35.886Z,9.67
2022-11-14T15:17:24.050Z,9.71
2022-11-14T15:20:27.287Z,9.66
2022-11-14T15:23:15.277Z,9.71
2022-11-14T15:26:10.147Z,9.69
2022-11-14T15:29:18.516Z,9.68
2022-11-14T15:32:06.550Z,9.73
2022-11-14T15:35:23.911Z,9.80
2022-11-14T15:38:42.632Z,9.79
2022-11-14T15:41:24.532Z,9.82
2022-11-14T15:44:35.937Z,9.88
2022-11-14T15:47:40.653Z,9.83
2022-11-14T15:50:35.425Z,9.80
2022-11-14T15:53:25.837Z,9.86
2022-11-14T15:56:14.332Z,9.95
2022-11-14T15:59:02.143Z,9.82
2022-11-14T16:01:54.273Z,9.67
2022-11-14T16:04:47.294Z,9.61
2022-11-14T16:07:47.676Z,9.54
2022-11-14T16:10:37.982Z,9.51
2022-11-14T16:13:33.119Z,9.35
2022-11-14T16:16:24.231Z,9.56
2022-11-14T16:19:16.764Z,9.49
2022-11-14T16:22:05.599Z,9.46
2022-11-14T16:24:53.809Z,9.46
2022-11-14T16:27:42.226Z,9.36
2022-11-14T16:30:30.221Z,9.48
2022-11-14T16:33:18.292Z,9.53
2022-11-14T16:36:12.251Z,9.42
2022-11-14T16:39:03.161Z,9.56
2022-11-14T16:41:51.374Z,9.50
2022-11-14T16:44:54.648Z,9.44
2022-11-14T16:48:04.612Z,9.39
2022-11-14T16:51:10.053Z,9.56
2022-11-14T16:54:06.165Z,9.56
2022-11-14T16:56:54.196Z,9.50
2022-11-14T16:59:42.136Z,9.52
2022-11-14T17:02:30.162Z,9.63
2022-11-14T17:05:20.491Z,9.60
2022-11-14T17:08:08.389Z,9.50
2022-11-14T17:10:56.254Z,9.51
2022-11-14T17:13:47.074Z,9.44
2022-11-14T17:16:35.020Z,9.45
2022-11-14T17:19:22.958Z,9.49
2022-11-14T17:22:17.403Z,9.52
2022-11-14T17:25:05.877Z,9.47
2022-11-14T17:27:53.735Z,9.47
2022-11-14T17:30:42.886Z,9.51
2022-11-14T17:33:31.272Z,9.52
2022-11-14T17:36:19.990Z,9.42
2022-11-14T17:39:07.983Z,9.48
2022-11-14T17:41:55.875Z,9.40
2022-11-14T17:44:43.710Z,9.40
2022-11-14T17:47:31.588Z,9.35
2022-11-14T17:50:19.427Z,9.36
2022-11-14T17:53:07.331Z,9.39
2022-11-14T17:55:59.585Z,9.42
2022-11-14T17:58:50.017Z,9.38
2022-11-14T18:01:38.045Z,9.32
2022-11-14T18:04:26.590Z,9.27
2022-11-14T18:07:22.673Z,9.19
2022-11-14T18:10:23.139Z,9.23
2022-11-14T18:13:11.546Z,9.22
2022-11-14T18:16:14.527Z,9.24
2022-11-14T18:19:16.947Z,9.24
2022-11-14T18:22:07.817Z,9.29
2022-11-14T18:24:56.291Z,9.33
2022-11-14T18:27:51.558Z,9.32
2022-11-14T18:30:45.686Z,9.31
2022-11-14T18:33:36.034Z,9.08
2022-11-14T18:36:26.409Z,9.19
2022-11-14T18:39:47.422Z,9.12
2022-11-14T18:42:35.615Z,9.16
2022-11-14T18:45:26.160Z,9.01
2022-11-14T18:48:13.995Z,9.13
2022-11-14T18:51:07.935Z,9.04
2022-11-14T18:54:04.139Z,9.16
2022-11-14T18:56:59.376Z,9.23
2022-11-14T18:59:50.456Z,9.06
2022-11-14T19:02:38.666Z,9.09
2022-11-14T19:05:26.649Z,9.03
2022-11-14T19:08:14.573Z,8.93
2022-11-14T19:11:08.779Z,9.10
2022-11-14T19:14:06.448Z,9.16
2022-11-14T19:16:54.468Z,8.94
2022-11-14T19:19:42.421Z,8.91
2022-11-14T19:22:30.297Z,8.92
2022-11-14T19:25:18.258Z,8.88
2022-11-14T19:28:06.295Z,8.86
2022-11-14T19:30:54.374Z,8.84
2022-11-14T19:33:50.251Z,8.73
2022-11-14T19:39:53.588Z,8.74
2022-11-14T19:42:44.774Z,8.72
2022-11-14T19:45:35.995Z,8.59
2022-11-14T19:48:26.645Z,8.66
2022-11-14T19:51:25.749Z,8.68
2022-11-14T19:54:16.076Z,8.78
2022-11-14T19:57:09.679Z,8.71
2022-11-14T20:00:06.232Z,8.70
2022-11-14T20:03:00.236Z,8.74
2022-11-14T20:05:49.605Z,8.69
2022-11-14T20:08:37.670Z,8.69
2022-11-14T20:11:28.933Z,8.73
2022-11-14T20:14:17.495Z,8.69
2022-11-14T20:17:14.781Z,8.66
2022-11-14T20:20:02.575Z,8.62
2022-11-14T20:22:50.473Z,8.63
2022-11-14T20:25:44.435Z,8.54
2022-11-14T20:28:34.096Z,8.46
2022-11-14T20:31:28.542Z,8.39
2022-11-14T20:34:16.314Z,8.34
2022-11-14T20:37:10.990Z,8.35
2022-11-14T20:40:02.978Z,8.32
2022-11-14T20:42:50.923Z,8.31
2022-11-14T20:45:41.084Z,8.30
2022-11-14T20:48:31.387Z,8.23
2022-11-14T20:51:24.786Z,8.18
2022-11-14T20:54:12.650Z,8.22
2022-11-14T20:57:03.009Z,8.17
2022-11-14T20:59:51.059Z,8.16
2022-11-14T21:02:39.115Z,8.15
2022-11-14T21:05:26.874Z,8.19
2022-11-14T21:08:16.860Z,8.17
2022-11-14T21:11:10.647Z,8.23
2022-11-14T21:14:01.698Z,8.26
2022-11-14T21:16:49.749Z,8.30
2022-11-14T21:19:37.799Z,8.29
2022-11-14T21:22:26.097Z,8.35
2022-11-14T21:25:16.683Z,8.33
2022-11-14T21:28:04.605Z,8.27
2022-11-14T21:30:58.697Z,8.30
2022-11-14T21:33:47.668Z,8.35
2022-11-14T21:37:08.252Z,8.32
2022-11-14T21:41:19.542Z,8.26
2022-11-14T21:43:43.259Z,8.33
2022-11-14T21:46:51.527Z,8.32
2022-11-14T21:50:00.922Z,8.23
2022-11-14T21:53:20.075Z,8.39
2022-11-14T21:56:35.884Z,8.45
2022-11-14T21:59:36.532Z,8.43
2022-11-14T22:06:11.956Z,8.66
2022-11-14T22:09:25.117Z,8.60
2022-11-14T22:15:20.342Z,8.64
2022-11-14T22:19:20.844Z,8.73
2022-11-14T22:25:07.786Z,8.76
2022-11-14T22:27:58.331Z,8.70
2022-11-14T22:30:46.157Z,8.78
2022-11-14T22:33:42.767Z,8.76
2022-11-14T22:36:33.924Z,8.76
2022-11-14T22:39:21.956Z,8.71
2022-11-14T22:42:10.781Z,8.80
2022-11-14T22:44:58.749Z,8.84
2022-11-14T22:47:46.623Z,8.76
2022-11-14T22:50:34.536Z,8.75
2022-11-14T22:53:22.338Z,8.86
2022-11-14T22:56:14.723Z,8.84
2022-11-14T22:59:02.785Z,8.77
2022-11-14T23:01:50.606Z,8.65
2022-11-14T23:04:40.673Z,8.60
2022-11-14T23:07:28.640Z,8.54
2022-11-14T23:10:17.868Z,8.48
2022-11-14T23:13:05.964Z,8.43
2022-11-14T23:15:53.890Z,8.43
2022-11-14T23:18:42.118Z,8.33
2022-11-14T23:21:37.856Z,8.27
2022-11-14T23:24:25.833Z,8.25
2022-11-14T23:27:13.676Z,8.24
2022-11-14T23:30:01.722Z,8.32
2022-11-14T23:32:49.763Z,8.35
2022-11-14T23:35:37.727Z,8.59
2022-11-14T23:38:25.577Z,8.58
2022-11-14T23:41:19.605Z,8.51
2022-11-14T23:44:07.471Z,8.76
2022-11-14T23:46:55.264Z,8.43
2022-11-14T23:49:43.164Z,8.42
2022-11-14T23:52:31.057Z,8.38
2022-11-14T23:55:19.137Z,8.29
2022-11-14T23:58:06.942Z,8.24
